Time;durP1;ratioP1;P1;durP2;ratioP2;P2;SDS_P1;SDS_P2;PMS_P1;PMS_P2;Temp;Humidity;BMP_temperature;BMP_pressure;BME280_temperature;BME280_humidity;BME280_pressure;Samples;Min_cycle;Max_cycle;Signal;HPM_P1;HPM_P2
2022/05/23 00:00:35;;;;;;;3.85;1.67;;;20.10;46.00;;;;;;4939769;28;20055;-49
2022/05/23 00:03:02;;;;;;;3.60;1.70;;;20.00;46.20;;;;;;4939543;28;20066;-46
2022/05/23 00:05:30;;;;;;;3.58;2.00;;;20.00;46.30;;;;;;4941901;28;20744;-48
2022/05/23 00:07:59;;;;;;;3.95;1.90;;;20.00;46.40;;;;;;4951292;28;20051;-46
2022/05/23 00:10:28;;;;;;;5.55;2.00;;;19.90;46.40;;;;;;4942086;28;20078;-50
2022/05/23 00:12:55;;;;;;;4.32;2.08;;;19.90;46.20;;;;;;4938272;28;20058;-48
2022/05/23 00:15:23;;;;;;;3.00;1.63;;;19.80;46.30;;;;;;4939523;28;20058;-49
2022/05/23 00:17:51;;;;;;;3.78;1.85;;;19.80;46.40;;;;;;4939166;28;20059;-49
2022/05/23 00:20:22;;;;;;;3.45;1.75;;;19.80;47.00;;;;;;4937891;28;20063;-47
2022/05/23 00:22:50;;;;;;;5.65;1.75;;;19.80;46.50;;;;;;4943467;28;20058;-49
2022/05/23 00:25:18;;;;;;;3.10;1.70;;;19.70;46.50;;;;;;4941033;28;20055;-46
2022/05/23 00:27:47;;;;;;;2.50;1.65;;;19.70;46.60;;;;;;4941416;28;20069;-50
2022/05/23 00:30:18;;;;;;;3.17;1.70;;;19.70;46.80;;;;;;4944882;28;20067;-49
2022/05/23 00:35:30;;;;;;;2.55;1.50;;;19.60;46.90;;;;;;4948913;28;20069;-48
2022/05/23 00:37:58;;;;;;;4.35;1.75;;;19.60;46.80;;;;;;4941417;28;20055;-49
2022/05/23 00:40:35;;;;;;;5.80;2.03;;;19.60;47.10;;;;;;4942589;28;20436;-46
2022/05/23 00:43:16;;;;;;;4.95;1.83;;;19.50;47.00;;;;;;4944360;28;20059;-49
2022/05/23 00:45:47;;;;;;;4.43;2.10;;;19.50;47.00;;;;;;4942611;28;20435;-48
2022/05/23 00:48:15;;;;;;;4.95;1.80;;;19.40;47.10;;;;;;4939195;28;20770;-46
2022/05/23 00:50:49;;;;;;;3.97;1.70;;;19.40;47.20;;;;;;4942600;28;20518;-46
2022/05/23 00:53:22;;;;;;;3.50;1.73;;;19.40;47.30;;;;;;4943447;28;20056;-47
2022/05/23 00:55:50;;;;;;;6.40;2.20;;;19.30;47.30;;;;;;4944244;28;20510;-49
2022/05/23 00:58:23;;;;;;;3.88;2.05;;;19.30;47.30;;;;;;4940806;28;20058;-46
2022/05/23 01:00:52;;;;;;;5.68;1.80;;;19.30;47.60;;;;;;4941670;28;20055;-50
2022/05/23 01:03:20;;;;;;;5.25;1.98;;;19.20;47.60;;;;;;4942653;28;20059;-50
2022/05/23 01:05:51;;;;;;;4.15;2.05;;;19.20;47.60;;;;;;4942898;28;20491;-46
2022/05/23 01:08:19;;;;;;;3.65;1.40;;;19.20;47.70;;;;;;4941809;28;20054;-49
2022/05/23 01:10:47;;;;;;;5.40;1.70;;;19.20;47.80;;;;;;4944875;28;20062;-45
2022/05/23 01:13:15;;;;;;;3.92;1.98;;;19.20;47.90;;;;;;4941455;28;20055;-46
2022/05/23 01:15:48;;;;;;;4.28;1.65;;;19.10;48.00;;;;;;4935647;28;20637;-48
2022/05/23 01:18:16;;;;;;;4.18;1.95;;;19.20;48.20;;;;;;4941421;28;20406;-47
2022/05/23 01:20:45;;;;;;;6.90;2.10;;;19.10;48.10;;;;;;4941995;28;20444;-47
2022/05/23 01:23:19;;;;;;;3.65;1.83;;;19.10;48.20;;;;;;4944995;28;20066;-47
2022/05/23 01:25:49;;;;;;;9.35;2.20;;;19.10;48.20;;;;;;4942088;28;20055;-46
2022/05/23 01:28:17;;;;;;;3.75;1.83;;;19.10;48.10;;;;;;4943468;28;20066;-47
2022/05/23 01:30:46;;;;;;;2.55;1.75;;;19.10;48.20;;;;;;4942825;28;20055;-47
2022/05/23 01:33:14;;;;;;;3.13;1.88;;;19.20;48.10;;;;;;4940513;28;20077;-45
2022/05/23 01:35:42;;;;;;;3.22;1.95;;;19.10;48.00;;;;;;4942185;28;20435;-48
2022/05/23 01:38:10;;;;;;;5.97;2.10;;;19.10;48.50;;;;;;4932939;28;20051;-47
2022/05/23 01:40:37;;;;;;;4.85;1.98;;;19.20;48.20;;;;;;4940209;28;20047;-46
2022/05/23 01:43:07;;;;;;;3.58;1.90;;;19.10;48.20;;;;;;4942416;28;20059;-46
2022/05/23 01:45:38;;;;;;;4.35;2.10;;;19.10;48.20;;;;;;4943374;28;20051;-46
2022/05/23 01:48:07;;;;;;;2.97;1.83;;;19.10;48.20;;;;;;4938423;28;20062;-48
2022/05/23 01:50:35;;;;;;;2.25;1.80;;;19.10;48.20;;;;;;4942425;28;20491;-50
2022/05/23 01:53:03;;;;;;;4.22;1.90;;;19.10;48.30;;;;;;4944261;28;20411;-50
2022/05/23 01:55:30;;;;;;;3.28;1.60;;;19.10;48.40;;;;;;4942863;28;20082;-49
2022/05/23 01:57:58;;;;;;;4.35;2.28;;;19.10;48.40;;;;;;4940138;28;20066;-47
2022/05/23 02:03:12;;;;;;;4.18;1.88;;;19.10;48.50;;;;;;4943838;28;20062;-47
2022/05/23 02:05:40;;;;;;;3.28;2.08;;;19.10;48.50;;;;;;4945676;28;20380;-49
2022/05/23 02:08:08;;;;;;;3.65;1.85;;;19.10;48.50;;;;;;4942289;28;20055;-47
2022/05/23 02:10:36;;;;;;;3.72;1.98;;;19.20;48.60;;;;;;4941824;28;20051;-52
2022/05/23 02:13:04;;;;;;;2.88;1.75;;;19.10;48.60;;;;;;4944823;28;20051;-45
2022/05/23 02:15:34;;;;;;;3.13;1.73;;;19.10;48.60;;;;;;4945239;28;20066;-48
2022/05/23 02:18:03;;;;;;;4.15;1.65;;;19.10;48.60;;;;;;4943269;29;20059;-50
2022/05/23 02:20:31;;;;;;;5.10;1.92;;;19.10;48.70;;;;;;4944911;28;20405;-49
2022/05/23 02:22:59;;;;;;;3.90;2.00;;;19.10;48.70;;;;;;4944812;28;20505;-45
2022/05/23 02:25:27;;;;;;;6.57;2.13;;;19.10;48.60;;;;;;4944544;28;20509;-47
2022/05/23 02:27:56;;;;;;;5.18;1.90;;;19.00;48.70;;;;;;4944168;28;20055;-46
2022/05/23 02:30:23;;;;;;;2.63;1.70;;;19.00;48.80;;;;;;4944216;28;21151;-50
2022/05/23 02:32:53;;;;;;;4.32;2.13;;;19.00;48.80;;;;;;4943079;28;20419;-46
2022/05/23 02:35:21;;;;;;;5.38;1.90;;;19.00;48.90;;;;;;4944488;29;20597;-48
2022/05/23 02:37:48;;;;;;;4.43;1.58;;;19.00;49.00;;;;;;4944374;28;20062;-49
2022/05/23 02:40:16;;;;;;;2.60;1.60;;;19.00;49.00;;;;;;4940889;28;20384;-46
2022/05/23 02:42:44;;;;;;;3.78;1.55;;;19.00;49.10;;;;;;4943653;28;20085;-51
2022/05/23 02:45:12;;;;;;;5.20;2.10;;;19.00;49.10;;;;;;4939410;28;20051;-47
2022/05/23 02:47:40;;;;;;;3.17;1.80;;;19.00;49.20;;;;;;4940561;28;20058;-48
2022/05/23 02:50:11;;;;;;;2.58;1.80;;;19.00;49.30;;;;;;4942493;28;20059;-46
2022/05/23 02:52:39;;;;;;;4.97;1.83;;;19.00;49.40;;;;;;4942792;28;20062;-47
2022/05/23 02:55:08;;;;;;;4.20;2.05;;;19.00;49.20;;;;;;4944889;28;20055;-47
2022/05/23 02:57:37;;;;;;;3.10;1.73;;;19.00;49.10;;;;;;4940208;28;20051;-46
2022/05/23 03:00:06;;;;;;;3.58;2.10;;;19.00;49.10;;;;;;4939582;28;20055;-47
2022/05/23 03:05:20;;;;;;;5.35;2.00;;;19.00;49.20;;;;;;4949837;28;20062;-48
2022/05/23 03:07:47;;;;;;;3.03;1.58;;;19.00;49.20;;;;;;4938571;28;20055;-52
2022/05/23 03:10:15;;;;;;;6.20;2.65;;;18.90;49.10;;;;;;4944053;28;20069;-46
2022/05/23 03:12:42;;;;;;;3.42;2.00;;;18.90;49.20;;;;;;4942454;28;20418;-47
2022/05/23 03:15:11;;;;;;;5.82;2.40;;;18.90;49.20;;;;;;4941824;28;20047;-48
2022/05/23 03:17:39;;;;;;;4.30;2.00;;;18.90;49.20;;;;;;4938577;28;20055;-46
2022/05/23 03:20:08;;;;;;;3.17;2.03;;;18.90;49.30;;;;;;4940789;28;20518;-49
2022/05/23 03:28:07;;;;;;;3.20;1.88;;;18.90;49.10;;;;;;4944952;28;20522;-46
2022/05/23 03:30:35;;;;;;;3.55;2.10;;;18.80;49.20;;;;;;4939251;28;20051;-47
2022/05/23 03:33:03;;;;;;;4.68;1.85;;;18.90;49.40;;;;;;4942993;28;20058;-49
2022/05/23 03:35:32;;;;;;;3.17;2.00;;;18.90;49.40;;;;;;4941766;28;20051;-47
2022/05/23 03:38:02;;;;;;;4.45;1.95;;;18.80;49.50;;;;;;4939319;28;20059;-48
2022/05/23 03:40:29;;;;;;;4.57;2.15;;;18.80;49.60;;;;;;4938878;28;20062;-49
2022/05/23 03:42:57;;;;;;;4.57;2.17;;;18.80;49.70;;;;;;4942980;28;20546;-50
2022/05/23 03:45:25;;;;;;;4.38;1.80;;;18.80;50.20;;;;;;4942577;28;20054;-50
2022/05/23 03:47:57;;;;;;;3.13;2.00;;;18.80;49.80;;;;;;4940976;28;20059;-49
2022/05/23 03:50:27;;;;;;;5.03;2.10;;;18.80;49.70;;;;;;4941699;28;21974;-46
2022/05/23 03:52:55;;;;;;;3.58;1.95;;;18.80;49.70;;;;;;4943452;28;20058;-49
2022/05/23 03:55:24;;;;;;;2.25;1.70;;;18.80;49.80;;;;;;4945782;28;20055;-47
2022/05/23 03:57:52;;;;;;;6.57;2.20;;;18.80;50.00;;;;;;4942122;28;20514;-47
2022/05/23 04:00:20;;;;;;;5.13;2.00;;;18.80;50.00;;;;;;4941450;28;20066;-46
2022/05/23 04:02:47;;;;;;;3.13;2.00;;;18.80;50.10;;;;;;4945739;29;20491;-46
2022/05/23 04:05:17;;;;;;;4.53;2.03;;;18.80;50.10;;;;;;4946019;28;20063;-47
2022/05/23 04:07:45;;;;;;;3.88;2.22;;;18.80;50.20;;;;;;4941226;28;20492;-46
2022/05/23 04:10:16;;;;;;;3.08;2.03;;;18.80;50.20;;;;;;4947224;28;20058;-47
2022/05/23 04:12:45;;;;;;;6.13;2.35;;;18.80;50.30;;;;;;4945921;28;20047;-45
2022/05/23 04:15:14;;;;;;;4.53;2.40;;;18.70;50.30;;;;;;4944533;28;20071;-48
2022/05/23 04:17:41;;;;;;;4.30;2.00;;;18.80;50.30;;;;;;4936867;28;20051;-45
2022/05/23 04:20:10;;;;;;;2.97;1.90;;;18.80;50.20;;;;;;4939868;28;20479;-46
2022/05/23 04:22:38;;;;;;;3.22;1.88;;;18.80;50.20;;;;;;4947585;28;20063;-48
2022/05/23 04:25:07;;;;;;;5.07;1.88;;;18.80;50.30;;;;;;4942867;28;20059;-46
2022/05/23 04:27:35;;;;;;;5.68;2.35;;;18.80;50.40;;;;;;4942998;28;20523;-50
2022/05/23 04:30:04;;;;;;;3.35;1.83;;;18.70;50.50;;;;;;4943705;28;20058;-50
2022/05/23 04:35:17;;;;;;;4.85;2.15;;;18.70;50.60;;;;;;4951696;28;20066;-49
2022/05/23 04:37:48;;;;;;;4.88;2.10;;;18.80;50.70;;;;;;4941512;28;20051;-48
2022/05/23 04:40:19;;;;;;;3.53;2.08;;;18.80;50.80;;;;;;4944862;28;20062;-45
2022/05/23 04:42:46;;;;;;;3.47;2.10;;;18.80;50.80;;;;;;4943803;28;20062;-47
2022/05/23 04:45:16;;;;;;;3.95;1.92;;;18.80;50.70;;;;;;4943276;28;20055;-46
2022/05/23 04:50:29;;;;;;;4.95;2.08;;;18.80;50.60;;;;;;4944447;28;20062;-46
2022/05/23 04:52:57;;;;;;;5.25;2.10;;;18.80;50.60;;;;;;4942551;28;20070;-49
2022/05/23 04:55:25;;;;;;;4.93;1.60;;;18.90;50.70;;;;;;4942437;28;20527;-47
2022/05/23 04:57:53;;;;;;;9.15;1.70;;;18.90;50.50;;;;;;4942994;28;20510;-46
2022/05/23 05:00:23;;;;;;;4.05;2.20;;;18.90;50.40;;;;;;4941371;28;20055;-47
2022/05/23 05:02:51;;;;;;;5.82;2.20;;;19.00;50.50;;;;;;4941454;28;20059;-50
2022/05/23 05:05:19;;;;;;;3.13;1.70;;;19.00;50.40;;;;;;4945775;28;20070;-46
2022/05/23 05:07:46;;;;;;;4.18;1.98;;;19.00;50.40;;;;;;4945975;28;20055;-46
2022/05/23 05:10:14;;;;;;;2.60;1.60;;;19.10;50.30;;;;;;4946492;28;20067;-47
2022/05/23 05:12:41;;;;;;;6.18;2.17;;;19.10;50.20;;;;;;4946116;28;20051;-47
2022/05/23 05:15:10;;;;;;;6.07;2.10;;;19.10;50.40;;;;;;4946752;28;21019;-47
2022/05/23 05:17:38;;;;;;;5.18;1.70;;;19.10;50.40;;;;;;4945282;28;20051;-47
2022/05/23 05:20:08;;;;;;;4.30;1.80;;;19.10;50.30;;;;;;4945444;29;20054;-49
2022/05/23 05:22:36;;;;;;;4.60;1.52;;;19.10;50.30;;;;;;4944012;29;20055;-46
2022/05/23 05:25:04;;;;;;;3.28;1.92;;;19.20;50.20;;;;;;4944404;28;20792;-47
2022/05/23 05:27:32;;;;;;;2.95;1.98;;;19.20;50.20;;;;;;4945590;28;20055;-49
2022/05/23 05:30:01;;;;;;;13.45;6.50;;;19.20;50.20;;;;;;4945837;28;20423;-47
2022/05/23 05:32:37;;;;;;;19.13;9.85;;;19.30;50.20;;;;;;4943988;28;20055;-49
2022/05/23 05:35:09;;;;;;;9.48;4.72;;;19.30;50.20;;;;;;4945689;29;20051;-47
2022/05/23 05:37:44;;;;;;;7.07;3.10;;;19.30;50.10;;;;;;4945372;29;20066;-48
2022/05/23 05:40:11;;;;;;;;;;;19.30;50.00;;;;;;4946337;28;20059;-48
2022/05/23 05:42:43;;;;;;;5.88;2.53;;;19.40;49.90;;;;;;4940660;28;20566;-47
2022/05/23 05:45:15;;;;;;;3.50;2.00;;;19.40;50.00;;;;;;4945096;28;20062;-46
2022/05/23 05:47:46;;;;;;;4.25;1.92;;;19.40;50.10;;;;;;4943999;28;20055;-49
2022/05/23 05:50:21;;;;;;;3.17;2.00;;;19.40;50.00;;;;;;4945376;28;20427;-47
2022/05/23 05:52:49;;;;;;;6.90;2.67;;;19.40;50.10;;;;;;4945145;28;20059;-46
2022/05/23 05:55:17;;;;;;;4.28;2.10;;;19.50;50.10;;;;;;4945117;29;20451;-46
2022/05/23 05:57:44;;;;;;;8.90;2.78;;;19.50;50.10;;;;;;4945352;28;20510;-49
2022/05/23 06:00:13;;;;;;;2.90;1.55;;;19.50;50.10;;;;;;4943949;29;20510;-51
2022/05/23 06:02:40;;;;;;;3.63;2.30;;;19.60;50.20;;;;;;4943711;28;20062;-49
2022/05/23 06:05:08;;;;;;;4.10;2.05;;;19.60;50.10;;;;;;4945449;28;20051;-51
2022/05/23 06:13:07;;;;;;;4.15;1.80;;;19.80;50.10;;;;;;4949946;28;20065;-47
2022/05/23 06:15:35;;;;;;;6.57;2.65;;;19.80;50.10;;;;;;4943452;28;20055;-47
2022/05/23 06:18:02;;;;;;;4.75;1.75;;;19.90;50.20;;;;;;4939050;28;20481;-46
2022/05/23 06:20:30;;;;;;;4.63;1.80;;;19.90;50.00;;;;;;4941302;28;20403;-46
2022/05/23 06:23:01;;;;;;;3.92;2.10;;;19.90;49.90;;;;;;4945075;28;20594;-48
2022/05/23 06:25:28;;;;;;;6.70;2.08;;;20.00;49.90;;;;;;4944066;28;20047;-50
2022/05/23 06:27:56;;;;;;;3.25;1.92;;;20.00;49.80;;;;;;4941683;28;20058;-48
2022/05/23 06:30:25;;;;;;;4.05;1.92;;;20.00;49.90;;;;;;4941393;28;20058;-51
2022/05/23 06:32:52;;;;;;;5.60;2.00;;;20.10;49.90;;;;;;4941440;28;20055;-47
2022/05/23 06:35:21;;;;;;;4.60;2.15;;;20.10;50.10;;;;;;4938418;28;20366;-47
2022/05/23 06:37:49;;;;;;;7.00;2.13;;;20.10;50.30;;;;;;4940528;28;20047;-47
2022/05/23 06:40:18;;;;;;;6.35;1.85;;;20.10;50.70;;;;;;4943236;28;20059;-47
2022/05/23 06:42:47;;;;;;;3.35;2.00;;;20.20;50.10;;;;;;4940003;28;20063;-46
2022/05/23 06:45:14;;;;;;;4.97;2.05;;;20.20;49.90;;;;;;4941556;28;20051;-48
2022/05/23 06:47:42;;;;;;;4.43;1.77;;;20.20;49.80;;;;;;4937770;28;20060;-49
2022/05/23 06:50:10;;;;;;;4.32;2.05;;;20.30;49.90;;;;;;4942745;28;20063;-46
2022/05/23 06:52:39;;;;;;;5.03;2.30;;;20.30;49.90;;;;;;4944180;28;20066;-48
2022/05/23 06:55:08;;;;;;;3.78;2.10;;;20.30;50.00;;;;;;4941447;28;20051;-47
2022/05/23 06:57:37;;;;;;;4.82;1.80;;;20.40;49.90;;;;;;4943920;28;20419;-49
2022/05/23 07:00:09;;;;;;;4.90;2.67;;;20.40;50.00;;;;;;4941088;28;20058;-50
2022/05/23 07:02:36;;;;;;;4.55;2.22;;;20.50;50.10;;;;;;4942712;28;20063;-47
2022/05/23 07:13:20;;;;;;;3.33;2.10;;;20.70;49.90;;;;;;4949656;28;20427;-46
2022/05/23 07:15:48;;;;;;;4.32;2.13;;;20.70;49.80;;;;;;4942831;28;20059;-46
2022/05/23 07:18:16;;;;;;;3.95;2.03;;;20.70;49.80;;;;;;4937773;28;20063;-48
2022/05/23 07:20:44;;;;;;;5.82;2.40;;;20.80;50.00;;;;;;4944186;28;20059;-48
2022/05/23 07:23:12;;;;;;;7.03;2.05;;;20.80;49.70;;;;;;4943308;28;20066;-45
2022/05/23 07:25:42;;;;;;;3.45;2.20;;;20.80;49.50;;;;;;4942413;28;20898;-50
2022/05/23 07:28:10;;;;;;;5.45;2.13;;;20.80;49.60;;;;;;4938918;28;20043;-52
2022/05/23 07:30:39;;;;;;;3.20;1.75;;;20.80;49.70;;;;;;4946087;28;20051;-50
2022/05/23 07:33:07;;;;;;;3.00;1.95;;;20.80;49.50;;;;;;4946869;28;20055;-50
2022/05/23 07:35:34;;;;;;;4.80;2.40;;;20.90;49.30;;;;;;4944045;28;20055;-48
2022/05/23 07:38:02;;;;;;;26.98;14.50;;;20.90;49.30;;;;;;4942225;28;20408;-51
2022/05/23 07:40:29;;;;;;;10.98;5.50;;;20.90;49.30;;;;;;4944747;28;20061;-45
2022/05/23 07:42:56;;;;;;;7.32;2.90;;;20.90;49.40;;;;;;4946092;28;20059;-45
2022/05/23 07:45:24;;;;;;;5.10;2.63;;;21.00;49.70;;;;;;4943599;28;20051;-47
2022/05/23 07:47:53;;;;;;;4.97;2.70;;;21.00;49.50;;;;;;4939942;28;20055;-48
2022/05/23 07:50:21;;;;;;;6.40;3.05;;;21.10;49.50;;;;;;4943367;28;20439;-46
2022/05/23 08:00:59;;;;;;;7.90;3.13;;;21.20;49.20;;;;;;4950473;28;20590;-49
2022/05/23 08:03:28;;;;;;;9.48;3.17;;;21.30;49.10;;;;;;4945113;28;20043;-51
2022/05/23 08:05:56;;;;;;;4.93;2.42;;;21.30;49.00;;;;;;4941665;28;20059;-50
2022/05/23 08:08:23;;;;;;;5.85;2.40;;;21.30;48.90;;;;;;4942972;28;20514;-46
2022/05/23 08:10:51;;;;;;;4.60;2.30;;;21.30;48.70;;;;;;4946122;28;20500;-48
2022/05/23 08:13:19;;;;;;;5.50;2.10;;;21.40;48.40;;;;;;4943918;28;20066;-48
2022/05/23 08:15:47;;;;;;;6.95;2.10;;;21.40;48.30;;;;;;4943080;28;20063;-46
2022/05/23 08:18:16;;;;;;;4.95;2.67;;;21.40;47.90;;;;;;4940741;28;20625;-48
2022/05/23 08:20:45;;;;;;;4.32;2.60;;;21.40;47.90;;;;;;4945395;28;20063;-47
2022/05/23 08:23:13;;;;;;;11.32;2.40;;;21.40;47.70;;;;;;4946102;28;20062;-47
2022/05/23 08:25:40;;;;;;;7.45;2.47;;;21.40;47.60;;;;;;4946158;28;20059;-45
2022/05/23 08:28:07;;;;;;;4.85;2.15;;;21.50;47.70;;;;;;4942834;28;20039;-45
2022/05/23 08:30:35;;;;;;;6.10;2.90;;;21.50;47.80;;;;;;4945645;28;20423;-47
2022/05/23 08:33:02;;;;;;;5.40;2.40;;;21.50;48.00;;;;;;4944583;28;20051;-47
2022/05/23 08:35:30;;;;;;;7.57;2.10;;;21.60;47.70;;;;;;4942745;28;20066;-45
2022/05/23 08:37:59;;;;;;;5.28;2.22;;;21.60;47.90;;;;;;4943011;28;20055;-47
2022/05/23 08:40:36;;;;;;;4.97;2.42;;;21.60;48.10;;;;;;4944685;28;20062;-46
2022/05/23 08:43:06;;;;;;;7.03;2.78;;;21.70;48.00;;;;;;4946462;28;20059;-50
2022/05/23 08:45:39;;;;;;;3.72;2.33;;;21.70;47.80;;;;;;4944568;28;20487;-48
2022/05/23 08:48:14;;;;;;;5.93;2.65;;;21.80;47.80;;;;;;4939896;28;20055;-47
2022/05/23 08:50:53;;;;;;;7.68;2.20;;;21.90;48.00;;;;;;4944045;28;20055;-46
2022/05/23 08:53:28;;;;;;;5.95;2.40;;;22.00;47.90;;;;;;4941280;28;20059;-50
2022/05/23 08:56:01;;;;;;;4.28;2.40;;;22.10;47.80;;;;;;4942803;28;20055;-45
2022/05/23 08:58:34;;;;;;;8.07;2.53;;;22.20;47.70;;;;;;4941901;28;20053;-46
2022/05/23 09:01:06;;;;;;;4.07;2.30;;;22.20;47.80;;;;;;4938849;28;20419;-49
2022/05/23 09:03:39;;;;;;;5.18;2.33;;;22.30;47.80;;;;;;4943444;28;20518;-50
2022/05/23 09:06:12;;;;;;;6.38;2.20;;;22.40;48.10;;;;;;4944647;28;20058;-49
2022/05/23 09:08:49;;;;;;;4.85;2.40;;;22.50;48.20;;;;;;4943082;28;20518;-49
2022/05/23 09:11:26;;;;;;;8.20;3.22;;;22.50;48.00;;;;;;4944947;28;20051;-45
2022/05/23 09:13:55;;;;;;;4.18;2.45;;;22.60;48.30;;;;;;4944030;28;20063;-47
2022/05/23 09:16:27;;;;;;;4.90;2.38;;;22.60;48.20;;;;;;4938625;28;20055;-45
2022/05/23 09:19:02;;;;;;;4.60;2.38;;;22.60;48.20;;;;;;4943048;28;20526;-46
2022/05/23 09:24:13;;;;;;;3.75;2.25;;;22.60;48.50;;;;;;4941081;28;20055;-49
2022/05/23 09:26:40;;;;;;;3.78;1.98;;;22.60;48.30;;;;;;4939919;28;20062;-52
2022/05/23 09:29:09;;;;;;;3.88;1.70;;;22.60;48.20;;;;;;4941117;28;20054;-45
2022/05/23 09:31:49;;;;;;;4.78;2.00;;;22.70;48.40;;;;;;4938059;28;20059;-46
2022/05/23 09:34:31;;;;;;;5.57;2.17;;;22.60;48.60;;;;;;4943850;28;20153;-49
2022/05/23 09:37:00;;;;;;;22.40;2.40;;;22.70;48.70;;;;;;4941101;28;20055;-45
2022/05/23 09:39:30;;;;;;;6.05;1.98;;;22.70;48.60;;;;;;4943309;28;20051;-46
2022/05/23 09:47:49;;;;;;;6.07;1.88;;;22.80;48.70;;;;;;4944363;28;20135;-47
2022/05/23 09:50:36;;;;;;;7.00;2.10;;;22.90;48.70;;;;;;4939377;28;20066;-48
2022/05/23 09:53:05;;;;;;;5.20;2.20;;;23.00;48.80;;;;;;4941057;28;20054;-49
2022/05/23 09:55:37;;;;;;;4.50;1.90;;;23.00;48.70;;;;;;4944044;28;20066;-46
2022/05/23 09:58:08;;;;;;;3.38;1.80;;;23.10;48.50;;;;;;4937897;28;20157;-45
2022/05/23 10:00:38;;;;;;;3.13;1.98;;;23.20;48.30;;;;;;4941822;28;20055;-48
2022/05/23 10:03:13;;;;;;;7.45;2.28;;;23.30;48.50;;;;;;4943053;28;20059;-47
2022/05/23 10:05:46;;;;;;;3.10;1.70;;;23.30;48.60;;;;;;4944953;28;20051;-50
2022/05/23 10:08:16;;;;;;;7.35;2.17;;;23.50;48.70;;;;;;4944128;28;20059;-45
2022/05/23 10:10:58;;;;;;;3.17;1.80;;;23.50;48.30;;;;;;4945397;28;20507;-50
2022/05/23 10:13:28;;;;;;;5.63;1.85;;;23.60;48.30;;;;;;4940302;28;20415;-46
2022/05/23 10:15:58;;;;;;;3.42;1.83;;;23.70;47.90;;;;;;4941483;28;20052;-45
2022/05/23 10:18:29;;;;;;;4.68;1.90;;;23.80;47.90;;;;;;4935578;28;21445;-47
2022/05/23 10:20:57;;;;;;;6.13;2.00;;;23.90;48.40;;;;;;4944015;28;20051;-48
2022/05/23 10:23:28;;;;;;;3.25;1.60;;;24.00;48.00;;;;;;4943320;28;20059;-48
2022/05/23 10:26:05;;;;;;;6.93;2.30;;;24.00;47.80;;;;;;4944644;28;20059;-49
2022/05/23 10:28:44;;;;;;;6.55;2.47;;;24.00;47.60;;;;;;4943322;28;20062;-44
2022/05/23 10:31:17;;;;;;;4.70;2.28;;;24.10;47.70;;;;;;4945141;28;20051;-48
2022/05/23 10:33:48;;;;;;;6.13;2.33;;;24.10;47.70;;;;;;4940454;28;20055;-50
2022/05/23 10:36:21;;;;;;;5.25;2.38;;;24.10;47.30;;;;;;4943047;28;20059;-47
2022/05/23 10:44:56;;;;;;;6.30;2.80;;;24.20;47.90;;;;;;4944370;28;20073;-46
2022/05/23 10:47:38;;;;;;;4.85;2.42;;;24.30;47.70;;;;;;4941270;28;20050;-49
2022/05/23 10:50:14;;;;;;;3.90;1.98;;;24.30;47.50;;;;;;4944459;29;20657;-47
2022/05/23 10:52:50;;;;;;;5.47;2.22;;;24.40;47.70;;;;;;4944568;29;20530;-46
2022/05/23 10:55:21;;;;;;;5.07;2.30;;;24.40;47.70;;;;;;4941324;28;20051;-47
2022/05/23 10:58:02;;;;;;;4.95;1.95;;;24.40;47.90;;;;;;4943167;28;20055;-49
2022/05/23 11:00:36;;;;;;;4.93;2.42;;;24.50;48.00;;;;;;4943720;28;20047;-45
2022/05/23 11:03:06;;;;;;;;;;;24.50;48.30;;;;;;4942211;28;20415;-50
2022/05/23 11:05:41;;;;;;;7.60;2.67;;;24.60;48.20;;;;;;4944251;29;20401;-48
2022/05/23 11:08:30;;;;;;;12.13;2.83;;;24.70;47.70;;;;;;4943596;28;20051;-49
2022/05/23 11:11:02;;;;;;;6.47;2.80;;;24.70;47.60;;;;;;4940947;28;20054;-47
2022/05/23 11:13:47;;;;;;;4.88;2.33;;;24.70;48.20;;;;;;4942976;28;20055;-46
2022/05/23 11:16:25;;;;;;;7.15;2.67;;;24.70;48.10;;;;;;4942336;28;20066;-45
2022/05/23 11:19:11;;;;;;;6.28;2.10;;;24.80;47.90;;;;;;4942014;28;20059;-46
2022/05/23 11:21:45;;;;;;;5.82;2.30;;;24.80;47.80;;;;;;4941844;28;20062;-48
2022/05/23 11:24:17;;;;;;;6.10;2.33;;;24.80;47.70;;;;;;4940792;28;20055;-47
2022/05/23 11:26:49;;;;;;;6.22;2.25;;;24.80;47.90;;;;;;4943773;28;20051;-48
2022/05/23 11:34:58;;;;;;;5.47;2.20;;;25.00;47.70;;;;;;4944035;29;20070;-47
2022/05/23 11:37:48;;;;;;;7.40;2.20;;;25.10;47.50;;;;;;4940855;28;20519;-51
2022/05/23 11:40:51;;;;;;;4.50;2.42;;;25.10;47.40;;;;;;4944081;28;20491;-46
2022/05/23 11:43:21;;;;;;;4.22;2.17;;;25.20;48.00;;;;;;4943613;28;20067;-49
2022/05/23 11:46:03;;;;;;;4.40;1.90;;;25.20;47.80;;;;;;4942730;28;20518;-47
2022/05/23 11:48:43;;;;;;;3.67;2.10;;;25.30;47.70;;;;;;4941570;28;20074;-51
2022/05/23 11:51:36;;;;;;;4.25;2.00;;;25.40;47.50;;;;;;4942815;28;20070;-49
2022/05/23 11:54:08;;;;;;;3.75;2.20;;;25.40;47.40;;;;;;4943017;28;20066;-46
2022/05/23 11:56:46;;;;;;;3.85;2.15;;;25.40;47.40;;;;;;4941121;28;21547;-47
2022/05/23 11:59:52;;;;;;;6.28;2.05;;;25.40;47.40;;;;;;4941155;28;20063;-47
2022/05/23 12:02:27;;;;;;;6.60;2.10;;;25.40;47.60;;;;;;4940763;28;20070;-48
2022/05/23 12:05:32;;;;;;;4.78;2.30;;;25.40;47.70;;;;;;4942274;28;20593;-48
2022/05/23 12:08:26;;;;;;;5.20;2.30;;;25.40;47.10;;;;;;4926197;28;20058;-48
2022/05/23 12:11:02;;;;;;;3.40;1.73;;;25.50;47.50;;;;;;4935050;28;20050;-48
2022/05/23 12:13:51;;;;;;;4.60;2.40;;;25.50;47.30;;;;;;4942788;29;20622;-48
2022/05/23 12:16:40;;;;;;;7.53;2.25;;;25.50;47.80;;;;;;4945099;28;20407;-45
2022/05/23 12:19:32;;;;;;;4.45;2.10;;;25.50;47.70;;;;;;4942232;28;20118;-45
2022/05/23 12:22:19;;;;;;;5.20;2.38;;;25.60;47.60;;;;;;4936800;28;20051;-51
2022/05/23 12:25:24;;;;;;;3.78;2.13;;;25.60;47.50;;;;;;4943050;28;20851;-48
2022/05/23 12:28:26;;;;;;;6.88;2.00;;;25.70;47.70;;;;;;4945324;28;20062;-48
2022/05/23 12:31:08;;;;;;;7.22;2.22;;;25.70;47.80;;;;;;4943892;28;20412;-46
2022/05/23 12:33:38;;;;;;;7.78;2.45;;;25.80;47.50;;;;;;4942319;29;20066;-45
2022/05/23 12:36:12;;;;;;;4.82;2.22;;;25.80;47.70;;;;;;4944920;28;20054;-51
2022/05/23 12:38:59;;;;;;;;;;;25.80;47.50;;;;;;4942975;28;20503;-46
2022/05/23 12:41:48;;;;;;;5.57;1.92;;;25.90;47.60;;;;;;4943549;28;19923;-46
2022/05/23 12:44:54;;;;;;;3.63;1.77;;;26.00;47.60;;;;;;4943424;28;20270;-46
2022/05/23 12:47:41;;;;;;;7.80;2.10;;;26.00;47.10;;;;;;4941887;28;20506;-47
2022/05/23 12:50:20;;;;;;;3.67;1.88;;;26.00;47.20;;;;;;4943088;29;20054;-47
2022/05/23 12:53:17;;;;;;;6.30;2.47;;;26.10;47.10;;;;;;4944835;28;20070;-46
2022/05/23 12:55:58;;;;;;;5.80;2.30;;;26.10;47.40;;;;;;4943236;28;20058;-47
2022/05/23 12:58:39;;;;;;;4.15;2.20;;;26.10;47.10;;;;;;4943857;28;20065;-46
2022/05/23 13:01:08;;;;;;;5.05;2.20;;;26.10;46.90;;;;;;4942957;28;20044;-45
2022/05/23 13:03:44;;;;;;;6.05;2.30;;;26.10;47.10;;;;;;4943556;28;20063;-53
2022/05/23 13:06:18;;;;;;;3.00;1.90;;;26.10;47.30;;;;;;4943082;28;20499;-46
2022/05/23 13:08:52;;;;;;;6.07;2.50;;;26.10;47.40;;;;;;4939831;28;20479;-45
2022/05/23 13:11:26;;;;;;;3.42;2.05;;;26.00;47.50;;;;;;4942922;28;20055;-48
2022/05/23 13:13:58;;;;;;;4.43;2.05;;;26.10;47.50;;;;;;4943434;28;20055;-48
2022/05/23 13:16:27;;;;;;;6.85;2.33;;;26.10;47.40;;;;;;4943294;28;20431;-47
2022/05/23 13:27:21;;;;;;;5.07;2.25;;;25.90;47.50;;;;;;4945615;28;20614;-46
2022/05/23 13:29:52;;;;;;;5.43;2.33;;;25.90;47.70;;;;;;4941868;28;20062;-47
2022/05/23 13:32:20;;;;;;;6.05;2.50;;;25.90;47.80;;;;;;4942129;28;20431;-46
2022/05/23 13:34:49;;;;;;;6.60;2.17;;;25.80;47.60;;;;;;4944395;28;20055;-46
2022/05/23 13:37:26;;;;;;;6.35;2.60;;;25.80;47.90;;;;;;4940906;28;20625;-50
2022/05/23 13:39:55;;;;;;;28.83;5.47;;;25.90;48.10;;;;;;4944670;28;20058;-47
2022/05/23 13:42:25;;;;;;;9.60;3.00;;;25.90;48.30;;;;;;4942205;28;20058;-50
2022/05/23 13:44:53;;;;;;;6.20;2.47;;;26.00;48.10;;;;;;4944687;28;20066;-45
2022/05/23 13:47:23;;;;;;;6.20;2.60;;;26.00;47.80;;;;;;4939392;28;20054;-49
2022/05/23 13:49:56;;;;;;;6.70;2.55;;;26.00;47.70;;;;;;4942889;28;20055;-47
2022/05/23 13:52:28;;;;;;;10.37;2.43;;;26.00;48.00;;;;;;4940426;28;20055;-47
2022/05/23 13:55:03;;;;;;;4.95;2.42;;;26.10;48.40;;;;;;4942813;28;20466;-47
2022/05/23 13:57:39;;;;;;;3.63;2.05;;;26.10;48.20;;;;;;4939674;28;20082;-49
2022/05/23 14:00:14;;;;;;;6.95;2.85;;;26.30;48.30;;;;;;4942035;28;20051;-48
2022/05/23 14:02:48;;;;;;;3.97;2.10;;;26.30;48.10;;;;;;4940283;28;20051;-45
2022/05/23 14:05:15;;;;;;;;;;;26.50;48.80;;;;;;4941960;28;20059;-49
2022/05/23 14:07:44;;;;;;;6.57;2.50;;;26.60;48.70;;;;;;4943611;28;20590;-45
2022/05/23 14:10:20;;;;;;;6.15;2.75;;;26.70;48.50;;;;;;4942986;28;20055;-48
2022/05/23 14:12:48;;;;;;;3.50;2.22;;;26.80;48.30;;;;;;4940278;28;20106;-44
2022/05/23 14:15:21;;;;;;;6.20;2.45;;;26.90;48.10;;;;;;4958341;28;20063;-47
2022/05/23 14:17:51;;;;;;;3.92;2.40;;;27.00;47.00;;;;;;4940887;28;20058;-48
2022/05/23 14:20:25;;;;;;;8.23;2.85;;;27.00;47.20;;;;;;4944440;28;20055;-46